sensor_id;sensor_type;location;lat;lon;timestamp;P1;durP1;ratioP1;P2;durP2;ratioP2
16735;SDS011;17990;49.548;9.730;2023-07-20T00:00:51;9.27;;;3.73;;
16735;SDS011;17990;49.548;9.730;2023-07-20T00:03:19;6.03;;;3.40;;
16735;SDS011;17990;49.548;9.730;2023-07-20T00:05:48;10.63;;;3.50;;
16735;SDS011;17990;49.548;9.730;2023-07-20T00:08:15;9.27;;;3.37;;
16735;SDS011;17990;49.548;9.730;2023-07-20T00:10:43;8.77;;;3.17;;
16735;SDS011;17990;49.548;9.730;2023-07-20T00:13:11;6.73;;;3.37;;
16735;SDS011;17990;49.548;9.730;2023-07-20T00:15:38;7.97;;;3.37;;
16735;SDS011;17990;49.548;9.730;2023-07-20T00:18:07;6.60;;;3.37;;
16735;SDS011;17990;49.548;9.730;2023-07-20T00:20:37;9.00;;;3.57;;
16735;SDS011;17990;49.548;9.730;2023-07-20T00:23:05;10.07;;;3.30;;
16735;SDS011;17990;49.548;9.730;2023-07-20T00:25:32;9.53;;;3.30;;
16735;SDS011;17990;49.548;9.730;2023-07-20T00:28:00;9.60;;;3.27;;
16735;SDS011;17990;49.548;9.730;2023-07-20T00:30:27;7.63;;;3.57;;
16735;SDS011;17990;49.548;9.730;2023-07-20T00:32:55;9.90;;;3.30;;
16735;SDS011;17990;49.548;9.730;2023-07-20T00:35:23;11.03;;;3.70;;
16735;SDS011;17990;49.548;9.730;2023-07-20T00:37:51;10.90;;;3.33;;
16735;SDS011;17990;49.548;9.730;2023-07-20T00:40:18;9.77;;;3.50;;
16735;SDS011;17990;49.548;9.730;2023-07-20T00:42:45;11.97;;;4.13;;
16735;SDS011;17990;49.548;9.730;2023-07-20T00:45:12;6.47;;;3.20;;
16735;SDS011;17990;49.548;9.730;2023-07-20T00:47:40;11.47;;;3.50;;
16735;SDS011;17990;49.548;9.730;2023-07-20T00:50:07;6.00;;;3.30;;
16735;SDS011;17990;49.548;9.730;2023-07-20T00:52:37;6.70;;;3.20;;
16735;SDS011;17990;49.548;9.730;2023-07-20T00:55:06;9.23;;;3.80;;
16735;SDS011;17990;49.548;9.730;2023-07-20T00:57:35;9.23;;;3.30;;
16735;SDS011;17990;49.548;9.730;2023-07-20T01:00:03;13.40;;;3.80;;
16735;SDS011;17990;49.548;9.730;2023-07-20T01:02:31;7.87;;;3.37;;
16735;SDS011;17990;49.548;9.730;2023-07-20T01:04:58;9.40;;;3.63;;
16735;SDS011;17990;49.548;9.730;2023-07-20T01:07:26;12.20;;;3.40;;
16735;SDS011;17990;49.548;9.730;2023-07-20T01:10:03;8.27;;;3.40;;
16735;SDS011;17990;49.548;9.730;2023-07-20T01:12:40;8.97;;;3.20;;
16735;SDS011;17990;49.548;9.730;2023-07-20T01:15:09;8.67;;;3.47;;
16735;SDS011;17990;49.548;9.730;2023-07-20T01:17:37;9.30;;;3.13;;
16735;SDS011;17990;49.548;9.730;2023-07-20T01:20:04;6.43;;;2.93;;
16735;SDS011;17990;49.548;9.730;2023-07-20T01:22:39;7.83;;;2.87;;
16735;SDS011;17990;49.548;9.730;2023-07-20T01:25:45;7.13;;;2.97;;
16735;SDS011;17990;49.548;9.730;2023-07-20T01:28:34;8.73;;;3.00;;
16735;SDS011;17990;49.548;9.730;2023-07-20T01:31:26;7.43;;;3.20;;
16735;SDS011;17990;49.548;9.730;2023-07-20T01:34:00;6.53;;;3.50;;
16735;SDS011;17990;49.548;9.730;2023-07-20T01:36:29;9.10;;;2.93;;
16735;SDS011;17990;49.548;9.730;2023-07-20T01:39:00;9.70;;;2.97;;
16735;SDS011;17990;49.548;9.730;2023-07-20T01:41:29;6.17;;;2.67;;
16735;SDS011;17990;49.548;9.730;2023-07-20T01:43:57;11.17;;;3.10;;
16735;SDS011;17990;49.548;9.730;2023-07-20T01:46:26;11.77;;;3.10;;
16735;SDS011;17990;49.548;9.730;2023-07-20T01:48:54;12.00;;;3.00;;
16735;SDS011;17990;49.548;9.730;2023-07-20T01:51:21;9.27;;;2.80;;
16735;SDS011;17990;49.548;9.730;2023-07-20T01:53:49;8.37;;;3.20;;
16735;SDS011;17990;49.548;9.730;2023-07-20T01:56:16;7.50;;;2.70;;
16735;SDS011;17990;49.548;9.730;2023-07-20T01:58:43;7.83;;;2.73;;
16735;SDS011;17990;49.548;9.730;2023-07-20T02:01:10;7.10;;;2.30;;
16735;SDS011;17990;49.548;9.730;2023-07-20T02:03:39;8.97;;;2.57;;
16735;SDS011;17990;49.548;9.730;2023-07-20T02:06:06;10.10;;;2.50;;
16735;SDS011;17990;49.548;9.730;2023-07-20T02:08:33;8.30;;;2.50;;
16735;SDS011;17990;49.548;9.730;2023-07-20T02:11:01;10.93;;;2.50;;
16735;SDS011;17990;49.548;9.730;2023-07-20T02:13:29;10.40;;;2.83;;
16735;SDS011;17990;49.548;9.730;2023-07-20T02:15:56;4.67;;;2.07;;
16735;SDS011;17990;49.548;9.730;2023-07-20T02:18:23;6.23;;;2.47;;
16735;SDS011;17990;49.548;9.730;2023-07-20T02:20:53;7.40;;;2.90;;
16735;SDS011;17990;49.548;9.730;2023-07-20T02:23:21;6.20;;;2.83;;
16735;SDS011;17990;49.548;9.730;2023-07-20T02:25:48;10.20;;;3.07;;
16735;SDS011;17990;49.548;9.730;2023-07-20T02:28:15;9.43;;;2.37;;
16735;SDS011;17990;49.548;9.730;2023-07-20T02:30:43;11.47;;;4.10;;
16735;SDS011;17990;49.548;9.730;2023-07-20T02:33:11;6.83;;;2.90;;
16735;SDS011;17990;49.548;9.730;2023-07-20T02:35:38;8.17;;;3.30;;
16735;SDS011;17990;49.548;9.730;2023-07-20T02:38:08;4.70;;;2.93;;
16735;SDS011;17990;49.548;9.730;2023-07-20T02:40:35;8.47;;;3.13;;
16735;SDS011;17990;49.548;9.730;2023-07-20T02:43:02;13.43;;;3.60;;
16735;SDS011;17990;49.548;9.730;2023-07-20T02:45:32;9.40;;;3.23;;
16735;SDS011;17990;49.548;9.730;2023-07-20T02:47:59;9.80;;;3.20;;
16735;SDS011;17990;49.548;9.730;2023-07-20T02:50:27;8.37;;;3.47;;
16735;SDS011;17990;49.548;9.730;2023-07-20T02:52:54;9.63;;;3.07;;
16735;SDS011;17990;49.548;9.730;2023-07-20T02:55:23;5.37;;;3.00;;
16735;SDS011;17990;49.548;9.730;2023-07-20T02:57:50;11.40;;;3.57;;
16735;SDS011;17990;49.548;9.730;2023-07-20T03:00:17;7.47;;;3.10;;
16735;SDS011;17990;49.548;9.730;2023-07-20T03:02:48;8.23;;;3.20;;
16735;SDS011;17990;49.548;9.730;2023-07-20T03:05:20;11.87;;;3.20;;
16735;SDS011;17990;49.548;9.730;2023-07-20T03:07:50;8.40;;;3.30;;
16735;SDS011;17990;49.548;9.730;2023-07-20T03:10:20;8.43;;;3.17;;
16735;SDS011;17990;49.548;9.730;2023-07-20T03:12:48;9.67;;;3.60;;
16735;SDS011;17990;49.548;9.730;2023-07-20T03:15:16;11.57;;;3.13;;
16735;SDS011;17990;49.548;9.730;2023-07-20T03:17:43;8.77;;;3.30;;
16735;SDS011;17990;49.548;9.730;2023-07-20T03:20:10;10.30;;;3.57;;
16735;SDS011;17990;49.548;9.730;2023-07-20T03:22:41;9.37;;;3.30;;
16735;SDS011;17990;49.548;9.730;2023-07-20T03:25:08;6.60;;;3.23;;
16735;SDS011;17990;49.548;9.730;2023-07-20T03:27:35;10.40;;;3.30;;
16735;SDS011;17990;49.548;9.730;2023-07-20T03:30:05;9.10;;;3.53;;
16735;SDS011;17990;49.548;9.730;2023-07-20T03:32:41;8.93;;;3.20;;
16735;SDS011;17990;49.548;9.730;2023-07-20T03:38:25;10.43;;;3.10;;
16735;SDS011;17990;49.548;9.730;2023-07-20T03:40:53;8.80;;;3.40;;
16735;SDS011;17990;49.548;9.730;2023-07-20T03:43:22;11.90;;;3.27;;
16735;SDS011;17990;49.548;9.730;2023-07-20T03:45:51;13.07;;;3.00;;
16735;SDS011;17990;49.548;9.730;2023-07-20T03:48:20;7.73;;;3.10;;
16735;SDS011;17990;49.548;9.730;2023-07-20T03:50:49;7.17;;;3.17;;
16735;SDS011;17990;49.548;9.730;2023-07-20T03:53:19;8.10;;;3.20;;
16735;SDS011;17990;49.548;9.730;2023-07-20T03:55:47;9.60;;;3.50;;
16735;SDS011;17990;49.548;9.730;2023-07-20T03:58:17;11.57;;;4.03;;
16735;SDS011;17990;49.548;9.730;2023-07-20T04:00:46;8.20;;;3.50;;
16735;SDS011;17990;49.548;9.730;2023-07-20T04:03:16;7.87;;;2.70;;
16735;SDS011;17990;49.548;9.730;2023-07-20T04:05:44;7.23;;;3.40;;
16735;SDS011;17990;49.548;9.730;2023-07-20T04:08:12;8.40;;;2.90;;
16735;SDS011;17990;49.548;9.730;2023-07-20T04:10:42;11.93;;;3.43;;
16735;SDS011;17990;49.548;9.730;2023-07-20T04:13:10;9.20;;;4.00;;
16735;SDS011;17990;49.548;9.730;2023-07-20T04:15:38;13.20;;;3.60;;
16735;SDS011;17990;49.548;9.730;2023-07-20T04:18:05;8.33;;;3.10;;
16735;SDS011;17990;49.548;9.730;2023-07-20T04:20:34;8.47;;;3.07;;
16735;SDS011;17990;49.548;9.730;2023-07-20T04:23:01;7.70;;;3.10;;
16735;SDS011;17990;49.548;9.730;2023-07-20T04:25:28;11.27;;;3.10;;
16735;SDS011;17990;49.548;9.730;2023-07-20T04:28:06;5.63;;;2.50;;
16735;SDS011;17990;49.548;9.730;2023-07-20T04:30:37;8.83;;;3.00;;
16735;SDS011;17990;49.548;9.730;2023-07-20T04:33:05;11.37;;;3.20;;
16735;SDS011;17990;49.548;9.730;2023-07-20T04:35:47;9.10;;;3.30;;
16735;SDS011;17990;49.548;9.730;2023-07-20T04:38:28;5.87;;;2.50;;
16735;SDS011;17990;49.548;9.730;2023-07-20T04:41:02;9.20;;;3.13;;
16735;SDS011;17990;49.548;9.730;2023-07-20T04:43:55;9.77;;;2.90;;
16735;SDS011;17990;49.548;9.730;2023-07-20T04:46:22;8.77;;;3.17;;
16735;SDS011;17990;49.548;9.730;2023-07-20T04:48:50;6.40;;;2.60;;
16735;SDS011;17990;49.548;9.730;2023-07-20T04:51:18;6.20;;;2.70;;
16735;SDS011;17990;49.548;9.730;2023-07-20T04:53:46;8.53;;;2.70;;
16735;SDS011;17990;49.548;9.730;2023-07-20T04:56:13;6.07;;;2.53;;
16735;SDS011;17990;49.548;9.730;2023-07-20T04:58:40;6.70;;;3.07;;
16735;SDS011;17990;49.548;9.730;2023-07-20T05:01:07;6.37;;;2.50;;
16735;SDS011;17990;49.548;9.730;2023-07-20T05:03:34;8.17;;;2.50;;
16735;SDS011;17990;49.548;9.730;2023-07-20T05:06:02;6.17;;;2.70;;
16735;SDS011;17990;49.548;9.730;2023-07-20T05:08:30;7.77;;;2.40;;
16735;SDS011;17990;49.548;9.730;2023-07-20T05:10:59;4.27;;;2.80;;
16735;SDS011;17990;49.548;9.730;2023-07-20T05:13:26;12.23;;;2.83;;
16735;SDS011;17990;49.548;9.730;2023-07-20T05:15:53;3.27;;;2.47;;
16735;SDS011;17990;49.548;9.730;2023-07-20T05:18:20;6.73;;;2.47;;
16735;SDS011;17990;49.548;9.730;2023-07-20T05:20:49;5.57;;;2.43;;
16735;SDS011;17990;49.548;9.730;2023-07-20T05:23:17;4.73;;;2.37;;
16735;SDS011;17990;49.548;9.730;2023-07-20T05:25:46;7.43;;;2.67;;
16735;SDS011;17990;49.548;9.730;2023-07-20T05:28:15;8.23;;;2.70;;
16735;SDS011;17990;49.548;9.730;2023-07-20T05:30:42;8.60;;;2.70;;
16735;SDS011;17990;49.548;9.730;2023-07-20T05:33:09;8.43;;;2.63;;
16735;SDS011;17990;49.548;9.730;2023-07-20T05:35:36;7.60;;;2.67;;
16735;SDS011;17990;49.548;9.730;2023-07-20T05:38:03;5.03;;;2.05;;
16735;SDS011;17990;49.548;9.730;2023-07-20T05:40:31;6.80;;;1.80;;
16735;SDS011;17990;49.548;9.730;2023-07-20T05:43:00;4.25;;;2.30;;
16735;SDS011;17990;49.548;9.730;2023-07-20T05:45:28;5.97;;;2.20;;
16735;SDS011;17990;49.548;9.730;2023-07-20T05:47:55;4.13;;;2.10;;
16735;SDS011;17990;49.548;9.730;2023-07-20T05:50:22;6.75;;;2.80;;
16735;SDS011;17990;49.548;9.730;2023-07-20T05:52:52;5.85;;;2.20;;
16735;SDS011;17990;49.548;9.730;2023-07-20T05:55:19;5.40;;;2.05;;
16735;SDS011;17990;49.548;9.730;2023-07-20T05:57:46;3.80;;;2.33;;
16735;SDS011;17990;49.548;9.730;2023-07-20T06:00:16;7.13;;;2.15;;
16735;SDS011;17990;49.548;9.730;2023-07-20T06:02:54;6.55;;;2.63;;
16735;SDS011;17990;49.548;9.730;2023-07-20T06:05:21;8.15;;;2.22;;
16735;SDS011;17990;49.548;9.730;2023-07-20T06:07:49;4.32;;;2.22;;
16735;SDS011;17990;49.548;9.730;2023-07-20T06:10:16;5.43;;;2.60;;
16735;SDS011;17990;49.548;9.730;2023-07-20T06:12:44;4.28;;;2.00;;
16735;SDS011;17990;49.548;9.730;2023-07-20T06:15:25;4.82;;;2.10;;
16735;SDS011;17990;49.548;9.730;2023-07-20T06:17:54;5.03;;;2.30;;
16735;SDS011;17990;49.548;9.730;2023-07-20T06:20:23;3.97;;;2.00;;
16735;SDS011;17990;49.548;9.730;2023-07-20T06:22:50;5.82;;;1.92;;
16735;SDS011;17990;49.548;9.730;2023-07-20T06:25:20;4.30;;;1.90;;
16735;SDS011;17990;49.548;9.730;2023-07-20T06:27:48;4.65;;;1.95;;
16735;SDS011;17990;49.548;9.730;2023-07-20T06:30:16;2.28;;;1.58;;
16735;SDS011;17990;49.548;9.730;2023-07-20T06:32:45;6.00;;;1.88;;
16735;SDS011;17990;49.548;9.730;2023-07-20T06:35:12;4.30;;;1.90;;
16735;SDS011;17990;49.548;9.730;2023-07-20T06:37:40;5.22;;;1.92;;
16735;SDS011;17990;49.548;9.730;2023-07-20T06:40:08;3.70;;;1.75;;
16735;SDS011;17990;49.548;9.730;2023-07-20T06:42:36;3.70;;;1.98;;
16735;SDS011;17990;49.548;9.730;2023-07-20T06:45:04;5.57;;;2.00;;
16735;SDS011;17990;49.548;9.730;2023-07-20T06:47:32;3.53;;;2.05;;
16735;SDS011;17990;49.548;9.730;2023-07-20T06:50:00;3.92;;;2.38;;
16735;SDS011;17990;49.548;9.730;2023-07-20T06:52:28;5.45;;;2.10;;
16735;SDS011;17990;49.548;9.730;2023-07-20T06:54:55;4.25;;;1.80;;
16735;SDS011;17990;49.548;9.730;2023-07-20T06:57:22;5.65;;;1.90;;
16735;SDS011;17990;49.548;9.730;2023-07-20T06:59:49;2.72;;;1.52;;
16735;SDS011;17990;49.548;9.730;2023-07-20T07:02:16;3.55;;;1.60;;
16735;SDS011;17990;49.548;9.730;2023-07-20T07:04:47;2.90;;;1.90;;
16735;SDS011;17990;49.548;9.730;2023-07-20T07:07:16;4.80;;;2.20;;
16735;SDS011;17990;49.548;9.730;2023-07-20T07:09:43;2.90;;;1.75;;
16735;SDS011;17990;49.548;9.730;2023-07-20T07:12:10;4.93;;;2.10;;
16735;SDS011;17990;49.548;9.730;2023-07-20T07:14:37;5.72;;;1.77;;
16735;SDS011;17990;49.548;9.730;2023-07-20T07:17:04;4.43;;;1.65;;
16735;SDS011;17990;49.548;9.730;2023-07-20T07:19:32;2.90;;;1.85;;
16735;SDS011;17990;49.548;9.730;2023-07-20T07:21:59;4.18;;;1.67;;
16735;SDS011;17990;49.548;9.730;2023-07-20T07:24:28;5.57;;;1.67;;
16735;SDS011;17990;49.548;9.730;2023-07-20T07:26:58;4.72;;;1.90;;
16735;SDS011;17990;49.548;9.730;2023-07-20T07:29:26;1.98;;;1.50;;
16735;SDS011;17990;49.548;9.730;2023-07-20T07:31:53;7.05;;;1.75;;
16735;SDS011;17990;49.548;9.730;2023-07-20T07:34:20;2.78;;;1.33;;
16735;SDS011;17990;49.548;9.730;2023-07-20T07:36:47;2.58;;;1.52;;
16735;SDS011;17990;49.548;9.730;2023-07-20T07:39:15;4.75;;;1.60;;
16735;SDS011;17990;49.548;9.730;2023-07-20T07:41:44;4.35;;;1.60;;
16735;SDS011;17990;49.548;9.730;2023-07-20T07:44:11;4.00;;;1.58;;
16735;SDS011;17990;49.548;9.730;2023-07-20T07:46:38;2.72;;;1.60;;
16735;SDS011;17990;49.548;9.730;2023-07-20T07:49:07;3.47;;;1.60;;
16735;SDS011;17990;49.548;9.730;2023-07-20T07:51:34;3.92;;;1.90;;
16735;SDS011;17990;49.548;9.730;2023-07-20T07:54:01;4.13;;;1.70;;
16735;SDS011;17990;49.548;9.730;2023-07-20T07:56:28;4.55;;;1.55;;
16735;SDS011;17990;49.548;9.730;2023-07-20T07:59:00;2.45;;;1.30;;
16735;SDS011;17990;49.548;9.730;2023-07-20T08:01:28;3.58;;;1.23;;
16735;SDS011;17990;49.548;9.730;2023-07-20T08:03:55;3.40;;;1.60;;
16735;SDS011;17990;49.548;9.730;2023-07-20T08:06:22;3.47;;;1.42;;
16735;SDS011;17990;49.548;9.730;2023-07-20T08:08:50;3.28;;;1.25;;
16735;SDS011;17990;49.548;9.730;2023-07-20T08:11:21;4.97;;;1.40;;
16735;SDS011;17990;49.548;9.730;2023-07-20T08:13:48;2.13;;;1.05;;
16735;SDS011;17990;49.548;9.730;2023-07-20T08:16:19;2.33;;;1.40;;
16735;SDS011;17990;49.548;9.730;2023-07-20T08:18:46;3.83;;;1.30;;
16735;SDS011;17990;49.548;9.730;2023-07-20T08:21:14;4.40;;;1.58;;
16735;SDS011;17990;49.548;9.730;2023-07-20T08:23:41;3.97;;;1.48;;
16735;SDS011;17990;49.548;9.730;2023-07-20T08:26:08;2.53;;;1.42;;
16735;SDS011;17990;49.548;9.730;2023-07-20T08:28:35;3.72;;;1.65;;
16735;SDS011;17990;49.548;9.730;2023-07-20T08:31:05;4.28;;;1.40;;
16735;SDS011;17990;49.548;9.730;2023-07-20T08:33:34;6.35;;;1.40;;
16735;SDS011;17990;49.548;9.730;2023-07-20T08:36:01;2.55;;;1.40;;
16735;SDS011;17990;49.548;9.730;2023-07-20T08:38:28;2.60;;;1.67;;
16735;SDS011;17990;49.548;9.730;2023-07-20T08:40:56;2.05;;;1.45;;
16735;SDS011;17990;49.548;9.730;2023-07-20T08:43:25;7.05;;;1.50;;
16735;SDS011;17990;49.548;9.730;2023-07-20T08:45:54;3.00;;;1.40;;
16735;SDS011;17990;49.548;9.730;2023-07-20T08:48:21;1.92;;;1.30;;
16735;SDS011;17990;49.548;9.730;2023-07-20T08:50:52;2.03;;;1.08;;
16735;SDS011;17990;49.548;9.730;2023-07-20T08:53:20;1.52;;;1.10;;
16735;SDS011;17990;49.548;9.730;2023-07-20T08:55:50;1.60;;;1.00;;
16735;SDS011;17990;49.548;9.730;2023-07-20T08:58:18;1.50;;;1.10;;
16735;SDS011;17990;49.548;9.730;2023-07-20T09:00:48;3.90;;;1.40;;
16735;SDS011;17990;49.548;9.730;2023-07-20T09:03:17;1.90;;;1.38;;
16735;SDS011;17990;49.548;9.730;2023-07-20T09:05:45;6.38;;;1.63;;
16735;SDS011;17990;49.548;9.730;2023-07-20T09:08:14;2.67;;;1.20;;
16735;SDS011;17990;49.548;9.730;2023-07-20T09:10:41;3.42;;;1.30;;
16735;SDS011;17990;49.548;9.730;2023-07-20T09:13:08;2.85;;;1.10;;
16735;SDS011;17990;49.548;9.730;2023-07-20T09:15:35;2.50;;;1.10;;
16735;SDS011;17990;49.548;9.730;2023-07-20T09:18:04;3.22;;;1.15;;
16735;SDS011;17990;49.548;9.730;2023-07-20T09:20:32;2.72;;;1.27;;
16735;SDS011;17990;49.548;9.730;2023-07-20T09:22:59;2.17;;;1.20;;
16735;SDS011;17990;49.548;9.730;2023-07-20T09:25:32;2.95;;;1.10;;
16735;SDS011;17990;49.548;9.730;2023-07-20T09:28:02;2.15;;;0.90;;
16735;SDS011;17990;49.548;9.730;2023-07-20T09:30:33;5.40;;;1.35;;
16735;SDS011;17990;49.548;9.730;2023-07-20T09:33:00;3.45;;;1.15;;
16735;SDS011;17990;49.548;9.730;2023-07-20T09:35:27;1.98;;;1.17;;
16735;SDS011;17990;49.548;9.730;2023-07-20T09:37:57;2.78;;;1.30;;
16735;SDS011;17990;49.548;9.730;2023-07-20T09:40:27;4.40;;;1.08;;
16735;SDS011;17990;49.548;9.730;2023-07-20T09:43:02;3.33;;;1.13;;
16735;SDS011;17990;49.548;9.730;2023-07-20T09:45:30;2.25;;;1.10;;
16735;SDS011;17990;49.548;9.730;2023-07-20T09:48:03;1.80;;;0.98;;
16735;SDS011;17990;49.548;9.730;2023-07-20T09:50:32;2.55;;;0.90;;
16735;SDS011;17990;49.548;9.730;2023-07-20T09:52:59;1.15;;;0.95;;
16735;SDS011;17990;49.548;9.730;2023-07-20T09:55:28;3.35;;;1.40;;
16735;SDS011;17990;49.548;9.730;2023-07-20T09:57:55;2.95;;;1.17;;
16735;SDS011;17990;49.548;9.730;2023-07-20T10:00:24;1.85;;;1.00;;
16735;SDS011;17990;49.548;9.730;2023-07-20T10:02:52;4.95;;;1.30;;
16735;SDS011;17990;49.548;9.730;2023-07-20T10:05:20;5.55;;;1.27;;
16735;SDS011;17990;49.548;9.730;2023-07-20T10:07:48;4.93;;;1.00;;
16735;SDS011;17990;49.548;9.730;2023-07-20T10:10:17;2.38;;;1.40;;
16735;SDS011;17990;49.548;9.730;2023-07-20T10:12:46;1.80;;;0.90;;
16735;SDS011;17990;49.548;9.730;2023-07-20T10:15:20;1.70;;;0.98;;
16735;SDS011;17990;49.548;9.730;2023-07-20T10:17:57;1.00;;;0.85;;
16735;SDS011;17990;49.548;9.730;2023-07-20T10:20:29;1.88;;;1.17;;
16735;SDS011;17990;49.548;9.730;2023-07-20T10:22:58;2.40;;;1.08;;
16735;SDS011;17990;49.548;9.730;2023-07-20T10:25:26;1.70;;;1.00;;
16735;SDS011;17990;49.548;9.730;2023-07-20T10:27:55;1.23;;;0.80;;
16735;SDS011;17990;49.548;9.730;2023-07-20T10:30:23;1.38;;;1.00;;
16735;SDS011;17990;49.548;9.730;2023-07-20T10:32:53;1.30;;;0.85;;
16735;SDS011;17990;49.548;9.730;2023-07-20T10:35:20;2.95;;;1.00;;
16735;SDS011;17990;49.548;9.730;2023-07-20T10:37:51;1.50;;;1.08;;
16735;SDS011;17990;49.548;9.730;2023-07-20T10:40:30;1.35;;;0.98;;
16735;SDS011;17990;49.548;9.730;2023-07-20T10:43:02;3.67;;;0.80;;
16735;SDS011;17990;49.548;9.730;2023-07-20T10:45:34;2.00;;;1.00;;
16735;SDS011;17990;49.548;9.730;2023-07-20T10:48:18;2.70;;;1.05;;
16735;SDS011;17990;49.548;9.730;2023-07-20T10:53:37;4.85;;;1.08;;
16735;SDS011;17990;49.548;9.730;2023-07-20T10:56:08;1.15;;;0.90;;
16735;SDS011;17990;49.548;9.730;2023-07-20T10:58:38;4.45;;;0.88;;
16735;SDS011;17990;49.548;9.730;2023-07-20T11:01:08;1.75;;;1.20;;
16735;SDS011;17990;49.548;9.730;2023-07-20T11:03:39;1.75;;;0.93;;
16735;SDS011;17990;49.548;9.730;2023-07-20T11:09:03;1.00;;;0.88;;
16735;SDS011;17990;49.548;9.730;2023-07-20T11:11:33;3.22;;;0.90;;
16735;SDS011;17990;49.548;9.730;2023-07-20T11:14:02;2.33;;;1.10;;
16735;SDS011;17990;49.548;9.730;2023-07-20T11:16:34;1.40;;;0.80;;
16735;SDS011;17990;49.548;9.730;2023-07-20T11:19:03;2.38;;;1.30;;
16735;SDS011;17990;49.548;9.730;2023-07-20T11:21:35;2.58;;;1.25;;
16735;SDS011;17990;49.548;9.730;2023-07-20T11:24:05;1.98;;;1.20;;
16735;SDS011;17990;49.548;9.730;2023-07-20T11:26:43;2.67;;;1.10;;
16735;SDS011;17990;49.548;9.730;2023-07-20T11:29:12;1.90;;;1.10;;
16735;SDS011;17990;49.548;9.730;2023-07-20T11:31:41;2.13;;;1.08;;
16735;SDS011;17990;49.548;9.730;2023-07-20T11:34:11;1.98;;;1.15;;
16735;SDS011;17990;49.548;9.730;2023-07-20T11:36:40;2.00;;;0.95;;
16735;SDS011;17990;49.548;9.730;2023-07-20T11:39:09;3.15;;;1.40;;
16735;SDS011;17990;49.548;9.730;2023-07-20T11:41:38;2.58;;;1.00;;
16735;SDS011;17990;49.548;9.730;2023-07-20T11:44:13;1.55;;;0.95;;
16735;SDS011;17990;49.548;9.730;2023-07-20T11:46:43;2.67;;;1.13;;
16735;SDS011;17990;49.548;9.730;2023-07-20T11:49:11;1.30;;;0.98;;
16735;SDS011;17990;49.548;9.730;2023-07-20T11:51:41;3.85;;;1.00;;
16735;SDS011;17990;49.548;9.730;2023-07-20T11:54:08;3.75;;;1.13;;
16735;SDS011;17990;49.548;9.730;2023-07-20T11:56:36;2.17;;;1.10;;
16735;SDS011;17990;49.548;9.730;2023-07-20T11:59:07;1.55;;;0.98;;
16735;SDS011;17990;49.548;9.730;2023-07-20T12:01:35;1.33;;;0.80;;
16735;SDS011;17990;49.548;9.730;2023-07-20T12:04:03;1.67;;;1.02;;
16735;SDS011;17990;49.548;9.730;2023-07-20T12:06:32;1.55;;;1.02;;
16735;SDS011;17990;49.548;9.730;2023-07-20T12:08:59;2.67;;;1.17;;
16735;SDS011;17990;49.548;9.730;2023-07-20T12:11:30;2.92;;;1.27;;
16735;SDS011;17990;49.548;9.730;2023-07-20T12:14:06;2.88;;;1.00;;
16735;SDS011;17990;49.548;9.730;2023-07-20T12:16:35;3.55;;;1.10;;
16735;SDS011;17990;49.548;9.730;2023-07-20T12:19:06;1.40;;;1.00;;
16735;SDS011;17990;49.548;9.730;2023-07-20T12:21:34;1.75;;;1.00;;
16735;SDS011;17990;49.548;9.730;2023-07-20T12:24:05;3.67;;;1.08;;
16735;SDS011;17990;49.548;9.730;2023-07-20T12:26:34;1.35;;;1.00;;
16735;SDS011;17990;49.548;9.730;2023-07-20T12:29:01;2.65;;;0.85;;
16735;SDS011;17990;49.548;9.730;2023-07-20T12:31:33;1.88;;;1.27;;
16735;SDS011;17990;49.548;9.730;2023-07-20T12:34:03;3.03;;;0.98;;
16735;SDS011;17990;49.548;9.730;2023-07-20T12:36:31;4.32;;;1.13;;
16735;SDS011;17990;49.548;9.730;2023-07-20T12:38:59;1.65;;;0.88;;
16735;SDS011;17990;49.548;9.730;2023-07-20T12:41:29;2.90;;;0.88;;
16735;SDS011;17990;49.548;9.730;2023-07-20T12:43:57;1.65;;;1.10;;
16735;SDS011;17990;49.548;9.730;2023-07-20T12:46:25;1.55;;;0.90;;
16735;SDS011;17990;49.548;9.730;2023-07-20T12:48:54;2.90;;;1.20;;
16735;SDS011;17990;49.548;9.730;2023-07-20T12:51:22;1.08;;;0.82;;
16735;SDS011;17990;49.548;9.730;2023-07-20T12:53:50;2.08;;;0.93;;
16735;SDS011;17990;49.548;9.730;2023-07-20T12:56:18;1.95;;;0.93;;
16735;SDS011;17990;49.548;9.730;2023-07-20T12:58:45;2.28;;;1.10;;
16735;SDS011;17990;49.548;9.730;2023-07-20T13:01:15;1.85;;;1.10;;
16735;SDS011;17990;49.548;9.730;2023-07-20T13:03:42;2.30;;;1.00;;
16735;SDS011;17990;49.548;9.730;2023-07-20T13:06:09;4.53;;;1.42;;
16735;SDS011;17990;49.548;9.730;2023-07-20T13:08:39;1.55;;;0.90;;
16735;SDS011;17990;49.548;9.730;2023-07-20T13:11:08;4.47;;;1.55;;
16735;SDS011;17990;49.548;9.730;2023-07-20T13:13:35;2.50;;;1.20;;
16735;SDS011;17990;49.548;9.730;2023-07-20T13:16:02;1.60;;;0.85;;
16735;SDS011;17990;49.548;9.730;2023-07-20T13:18:30;1.23;;;1.10;;
16735;SDS011;17990;49.548;9.730;2023-07-20T13:20:57;2.55;;;1.35;;
16735;SDS011;17990;49.548;9.730;2023-07-20T13:23:24;3.20;;;1.30;;
16735;SDS011;17990;49.548;9.730;2023-07-20T13:25:51;2.08;;;1.00;;
16735;SDS011;17990;49.548;9.730;2023-07-20T13:28:20;1.17;;;1.05;;
16735;SDS011;17990;49.548;9.730;2023-07-20T13:30:47;2.78;;;1.02;;
16735;SDS011;17990;49.548;9.730;2023-07-20T13:33:14;1.98;;;1.00;;
16735;SDS011;17990;49.548;9.730;2023-07-20T13:35:41;2.33;;;1.08;;
16735;SDS011;17990;49.548;9.730;2023-07-20T13:38:09;4.97;;;1.23;;
16735;SDS011;17990;49.548;9.730;2023-07-20T13:40:36;1.45;;;0.95;;
16735;SDS011;17990;49.548;9.730;2023-07-20T13:43:03;2.83;;;1.20;;
16735;SDS011;17990;49.548;9.730;2023-07-20T13:45:31;2.17;;;1.20;;
16735;SDS011;17990;49.548;9.730;2023-07-20T13:47:59;1.88;;;1.05;;
16735;SDS011;17990;49.548;9.730;2023-07-20T13:50:26;2.10;;;1.10;;
16735;SDS011;17990;49.548;9.730;2023-07-20T13:52:53;1.52;;;0.90;;
16735;SDS011;17990;49.548;9.730;2023-07-20T13:55:20;2.00;;;1.15;;
16735;SDS011;17990;49.548;9.730;2023-07-20T13:57:47;1.52;;;0.90;;
16735;SDS011;17990;49.548;9.730;2023-07-20T14:00:16;2.95;;;1.15;;
16735;SDS011;17990;49.548;9.730;2023-07-20T14:02:48;1.00;;;0.82;;
16735;SDS011;17990;49.548;9.730;2023-07-20T14:05:15;2.97;;;1.10;;
16735;SDS011;17990;49.548;9.730;2023-07-20T14:07:42;9.85;;;1.15;;
16735;SDS011;17990;49.548;9.730;2023-07-20T14:10:09;1.98;;;0.85;;
16735;SDS011;17990;49.548;9.730;2023-07-20T14:12:37;2.10;;;1.00;;
16735;SDS011;17990;49.548;9.730;2023-07-20T14:15:04;1.77;;;1.08;;
16735;SDS011;17990;49.548;9.730;2023-07-20T14:17:32;3.45;;;1.00;;
16735;SDS011;17990;49.548;9.730;2023-07-20T14:20:01;1.77;;;1.00;;
16735;SDS011;17990;49.548;9.730;2023-07-20T14:22:30;2.10;;;1.02;;
16735;SDS011;17990;49.548;9.730;2023-07-20T14:24:58;1.58;;;1.10;;
16735;SDS011;17990;49.548;9.730;2023-07-20T14:27:25;1.70;;;1.20;;
16735;SDS011;17990;49.548;9.730;2023-07-20T14:29:52;2.80;;;1.15;;
16735;SDS011;17990;49.548;9.730;2023-07-20T14:32:20;1.77;;;1.00;;
16735;SDS011;17990;49.548;9.730;2023-07-20T14:34:47;1.50;;;1.00;;
16735;SDS011;17990;49.548;9.730;2023-07-20T14:37:16;1.88;;;1.00;;
16735;SDS011;17990;49.548;9.730;2023-07-20T14:39:43;2.53;;;0.77;;
16735;SDS011;17990;49.548;9.730;2023-07-20T14:42:10;2.67;;;1.10;;
16735;SDS011;17990;49.548;9.730;2023-07-20T14:44:38;1.55;;;0.80;;
16735;SDS011;17990;49.548;9.730;2023-07-20T14:47:05;1.83;;;1.17;;
16735;SDS011;17990;49.548;9.730;2023-07-20T14:49:33;2.05;;;1.10;;
16735;SDS011;17990;49.548;9.730;2023-07-20T14:52:01;1.50;;;1.20;;
16735;SDS011;17990;49.548;9.730;2023-07-20T14:54:31;1.98;;;0.93;;
16735;SDS011;17990;49.548;9.730;2023-07-20T14:56:58;3.67;;;1.13;;
16735;SDS011;17990;49.548;9.730;2023-07-20T14:59:25;2.00;;;1.02;;
16735;SDS011;17990;49.548;9.730;2023-07-20T15:01:52;1.70;;;1.02;;
16735;SDS011;17990;49.548;9.730;2023-07-20T15:04:19;1.90;;;1.10;;